Time;durP1;ratioP1;P1;durP2;ratioP2;P2;SDS_P1;SDS_P2;PMS_P1;PMS_P2;Temp;Humidity;BMP_temperature;BMP_pressure;BME280_temperature;BME280_humidity;BME280_pressure;Samples;Min_cycle;Max_cycle;Signal;HPM_P1;HPM_P2
2022/03/28 00:00:14;;;;;;;1.20;1.05;;;16.60;48.50;;;;;;5123383;28;20034;-66
2022/03/28 00:02:41;;;;;;;2.10;1.20;;;16.60;48.50;;;;;;5123250;28;20372;-68
2022/03/28 00:05:11;;;;;;;1.65;1.33;;;16.60;48.60;;;;;;5123204;28;20379;-65
2022/03/28 00:07:37;;;;;;;1.17;1.05;;;16.60;48.50;;;;;;5123240;28;20022;-66
2022/03/28 00:10:03;;;;;;;1.50;1.35;;;16.60;48.50;;;;;;5123224;28;20028;-66
2022/03/28 00:12:29;;;;;;;1.30;1.20;;;16.60;48.50;;;;;;5123122;28;20311;-66
2022/03/28 00:14:57;;;;;;;2.08;1.33;;;16.60;48.50;;;;;;5122986;28;20072;-67
2022/03/28 00:17:23;;;;;;;1.42;1.25;;;16.60;48.50;;;;;;5123072;28;20023;-65
2022/03/28 00:19:49;;;;;;;2.53;1.40;;;16.60;48.50;;;;;;5122931;28;20030;-66
2022/03/28 00:22:14;;;;;;;2.17;1.33;;;16.60;48.50;;;;;;5122930;28;20037;-65
2022/03/28 00:24:40;;;;;;;1.10;1.00;;;16.60;48.50;;;;;;5122845;28;20039;-68
2022/03/28 00:27:06;;;;;;;1.25;1.15;;;16.60;48.40;;;;;;5122747;28;20024;-67
2022/03/28 00:29:32;;;;;;;1.33;1.23;;;16.60;48.60;;;;;;5122707;28;20023;-66
2022/03/28 00:31:57;;;;;;;1.45;1.35;;;16.60;48.40;;;;;;5122778;28;20023;-67
2022/03/28 00:34:23;;;;;;;2.15;1.23;;;16.60;48.40;;;;;;5122680;28;20197;-66
2022/03/28 00:36:50;;;;;;;1.40;1.30;;;16.60;48.30;;;;;;5122614;28;20068;-66
2022/03/28 00:39:19;;;;;;;1.33;1.15;;;16.60;48.30;;;;;;5122577;28;20027;-67
2022/03/28 00:41:44;;;;;;;;;;;16.60;48.40;;;;;;5123082;28;20016;-67
2022/03/28 00:44:10;;;;;;;2.53;1.30;;;16.60;48.40;;;;;;5121262;28;19949;-67
2022/03/28 00:46:36;;;;;;;1.40;1.25;;;16.60;48.40;;;;;;5122408;28;20096;-66
2022/03/28 00:49:02;;;;;;;2.20;1.73;;;16.60;48.40;;;;;;5122279;28;20051;-67
2022/03/28 00:51:27;;;;;;;1.58;1.17;;;16.60;48.30;;;;;;5122352;28;20032;-66
2022/03/28 00:53:53;;;;;;;1.48;1.38;;;16.60;48.40;;;;;;5122310;28;20027;-66
2022/03/28 00:56:20;;;;;;;1.70;1.15;;;16.60;48.40;;;;;;5122216;28;20027;-67
2022/03/28 00:58:46;;;;;;;1.30;1.20;;;16.50;48.40;;;;;;5122295;28;20030;-65
2022/03/28 01:01:12;;;;;;;1.48;1.08;;;16.60;48.40;;;;;;5122329;28;20082;-67
2022/03/28 01:03:38;;;;;;;1.10;1.00;;;16.60;48.30;;;;;;5120768;28;20059;-66
2022/03/28 01:06:05;;;;;;;1.30;1.15;;;16.60;48.30;;;;;;5122183;28;20027;-66
2022/03/28 01:08:32;;;;;;;1.30;1.20;;;16.60;48.30;;;;;;5121387;28;20031;-67
2022/03/28 01:11:00;;;;;;;1.10;1.00;;;16.60;48.30;;;;;;5121947;28;20026;-66
2022/03/28 01:13:26;;;;;;;2.15;1.17;;;16.60;48.30;;;;;;5121889;28;20053;-67
2022/03/28 01:15:52;;;;;;;1.73;1.45;;;16.60;48.30;;;;;;5121872;28;20015;-67
2022/03/28 01:18:18;;;;;;;1.50;1.15;;;16.50;48.30;;;;;;5121743;28;20035;-67
2022/03/28 01:20:44;;;;;;;1.10;0.90;;;16.50;48.30;;;;;;5121850;28;20061;-67
2022/03/28 01:23:10;;;;;;;2.33;1.50;;;16.50;48.30;;;;;;5121621;28;20078;-68
2022/03/28 01:25:37;;;;;;;1.77;1.48;;;16.50;48.40;;;;;;5121696;28;20047;-66
2022/03/28 01:28:03;;;;;;;1.20;1.10;;;16.60;48.30;;;;;;5121712;28;20039;-65
2022/03/28 01:30:30;;;;;;;1.52;1.23;;;16.50;48.30;;;;;;5121602;28;20054;-66
2022/03/28 01:32:57;;;;;;;1.65;1.30;;;16.50;48.20;;;;;;5121461;28;20028;-66
2022/03/28 01:35:32;;;;;;;1.17;1.08;;;16.50;48.20;;;;;;5121521;28;20110;-66
2022/03/28 01:37:59;;;;;;;2.65;1.50;;;16.50;48.30;;;;;;5121311;28;20019;-66
2022/03/28 01:40:26;;;;;;;1.38;1.13;;;16.50;48.30;;;;;;5121286;28;20332;-68
2022/03/28 01:42:52;;;;;;;1.38;1.10;;;16.50;48.30;;;;;;5121410;28;20015;-67
2022/03/28 01:45:18;;;;;;;1.20;1.10;;;16.50;48.30;;;;;;5121270;28;20136;-66
2022/03/28 01:47:45;;;;;;;1.50;1.10;;;16.50;48.40;;;;;;5121267;28;20027;-66
2022/03/28 01:50:11;;;;;;;1.20;1.10;;;16.50;48.30;;;;;;5121080;28;20052;-67
2022/03/28 01:52:37;;;;;;;2.05;1.42;;;16.50;48.30;;;;;;5120990;28;20076;-66
2022/03/28 01:55:03;;;;;;;1.75;1.15;;;16.50;48.30;;;;;;5121188;28;20138;-66
2022/03/28 01:57:29;;;;;;;1.30;1.10;;;16.50;48.30;;;;;;5120993;28;20031;-66
2022/03/28 01:59:55;;;;;;;1.45;1.33;;;16.50;48.30;;;;;;5120903;28;20016;-67
2022/03/28 02:02:20;;;;;;;1.38;1.27;;;16.50;48.30;;;;;;5120939;28;20074;-67
2022/03/28 02:04:46;;;;;;;2.83;1.58;;;16.50;48.20;;;;;;5120895;28;20371;-67
2022/03/28 02:07:12;;;;;;;2.22;1.52;;;16.50;48.30;;;;;;5120843;28;20035;-67
2022/03/28 02:09:37;;;;;;;1.67;1.20;;;16.50;48.20;;;;;;5120715;28;20148;-67
2022/03/28 02:12:04;;;;;;;1.40;1.20;;;16.50;48.30;;;;;;5119507;28;20031;-66
2022/03/28 02:14:30;;;;;;;1.83;1.30;;;16.50;48.20;;;;;;5120524;28;20015;-66
2022/03/28 02:16:56;;;;;;;1.75;1.55;;;16.50;48.30;;;;;;5120574;28;20312;-66
2022/03/28 02:19:22;;;;;;;0.98;0.98;;;16.50;48.20;;;;;;5120525;28;20019;-67
2022/03/28 02:21:48;;;;;;;1.42;1.23;;;16.50;48.30;;;;;;5119564;28;20058;-67
2022/03/28 02:24:14;;;;;;;2.05;1.52;;;16.50;48.20;;;;;;5120436;28;20027;-67
2022/03/28 02:26:39;;;;;;;0.95;0.80;;;16.40;48.10;;;;;;5120390;28;20015;-67
2022/03/28 02:29:05;;;;;;;1.52;1.05;;;16.50;48.20;;;;;;5120409;28;20058;-66
2022/03/28 02:31:31;;;;;;;1.77;1.30;;;16.50;48.20;;;;;;5120314;28;20038;-66
2022/03/28 02:33:56;;;;;;;1.95;1.30;;;16.50;48.20;;;;;;5120126;28;20055;-67
2022/03/28 02:36:22;;;;;;;1.95;1.10;;;16.50;48.20;;;;;;5120320;28;20024;-66
2022/03/28 02:38:48;;;;;;;1.20;1.10;;;16.50;48.20;;;;;;5120178;28;20027;-66
2022/03/28 02:41:14;;;;;;;1.20;1.10;;;16.40;48.20;;;;;;5120256;28;20047;-67
2022/03/28 02:43:39;;;;;;;1.85;1.27;;;16.40;48.20;;;;;;5120158;28;20039;-67
2022/03/28 02:46:05;;;;;;;2.03;1.27;;;16.50;48.20;;;;;;5120148;28;20085;-67
2022/03/28 02:48:31;;;;;;;1.85;1.20;;;16.40;48.10;;;;;;5119945;28;20058;-68
2022/03/28 02:50:57;;;;;;;1.30;1.20;;;16.40;48.10;;;;;;5120066;28;20032;-66
2022/03/28 02:53:22;;;;;;;1.13;0.93;;;16.40;48.10;;;;;;5119910;28;20033;-66
2022/03/28 02:55:48;;;;;;;1.63;1.42;;;16.40;48.10;;;;;;5120033;28;20024;-66
2022/03/28 02:58:14;;;;;;;2.05;1.27;;;16.40;48.20;;;;;;5119970;28;20023;-66
2022/03/28 03:00:40;;;;;;;1.15;1.00;;;16.40;48.20;;;;;;5120012;28;20207;-67
2022/03/28 03:03:05;;;;;;;1.33;1.23;;;16.40;48.20;;;;;;5119990;28;20484;-66
2022/03/28 03:05:31;;;;;;;1.20;1.10;;;16.40;48.10;;;;;;5119873;28;20034;-68
2022/03/28 03:07:57;;;;;;;1.75;1.38;;;16.40;48.10;;;;;;5119829;28;20038;-66
2022/03/28 03:10:23;;;;;;;1.35;1.23;;;16.40;48.10;;;;;;5119919;28;20035;-66
2022/03/28 03:12:48;;;;;;;2.70;1.70;;;16.40;48.10;;;;;;5119770;28;20035;-66
2022/03/28 03:15:14;;;;;;;1.63;1.35;;;16.40;48.10;;;;;;5119767;28;20080;-67
2022/03/28 03:17:40;;;;;;;1.20;1.10;;;16.40;48.10;;;;;;5119393;28;20051;-68
2022/03/28 03:20:06;;;;;;;1.42;1.20;;;16.40;48.10;;;;;;5119863;28;20101;-66
2022/03/28 03:22:32;;;;;;;1.27;1.08;;;16.40;48.10;;;;;;5119830;28;20098;-66
2022/03/28 03:24:58;;;;;;;1.20;0.98;;;16.40;48.10;;;;;;5119716;28;20262;-68
2022/03/28 03:27:24;;;;;;;1.45;1.35;;;16.40;48.10;;;;;;5119748;28;20059;-66
2022/03/28 03:29:50;;;;;;;1.67;1.30;;;16.40;48.10;;;;;;5119694;28;20061;-67
2022/03/28 03:32:15;;;;;;;1.40;1.30;;;16.40;48.10;;;;;;5121449;28;20218;-66
2022/03/28 03:34:41;;;;;;;1.55;1.30;;;16.30;48.00;;;;;;5123664;28;20041;-68
2022/03/28 03:37:07;;;;;;;1.50;1.40;;;16.30;48.00;;;;;;5123640;28;20087;-66
2022/03/28 03:39:35;;;;;;;1.50;1.08;;;16.30;48.00;;;;;;5123612;28;20043;-66
2022/03/28 03:42:02;;;;;;;1.45;1.15;;;16.30;48.10;;;;;;5123678;28;20242;-67
2022/03/28 03:44:28;;;;;;;1.25;1.00;;;16.30;48.10;;;;;;5123552;28;20030;-67
2022/03/28 03:46:53;;;;;;;1.23;1.10;;;16.30;48.10;;;;;;5123514;28;20023;-66
2022/03/28 03:49:19;;;;;;;1.38;1.10;;;16.30;48.20;;;;;;5123219;28;20367;-66
2022/03/28 03:51:45;;;;;;;1.13;1.02;;;16.30;48.10;;;;;;5122169;28;20293;-66
2022/03/28 03:54:12;;;;;;;1.83;1.17;;;16.30;48.10;;;;;;5123263;28;20027;-67
2022/03/28 03:56:38;;;;;;;1.10;1.00;;;16.30;48.10;;;;;;5123289;28;20030;-66
2022/03/28 03:59:04;;;;;;;1.13;0.90;;;16.30;48.10;;;;;;5123306;28;20078;-67
2022/03/28 04:01:29;;;;;;;1.98;1.35;;;16.30;48.10;;;;;;5123116;28;20043;-67
2022/03/28 04:03:55;;;;;;;1.13;1.02;;;16.30;48.20;;;;;;5123170;28;20039;-66
2022/03/28 04:06:21;;;;;;;1.65;1.55;;;16.30;48.30;;;;;;5123056;28;20262;-67
2022/03/28 04:08:47;;;;;;;1.55;1.20;;;16.20;48.30;;;;;;5121812;28;20107;-67
2022/03/28 04:11:13;;;;;;;1.85;1.20;;;16.20;48.20;;;;;;5123000;28;20027;-65
2022/03/28 04:13:39;;;;;;;1.58;1.23;;;16.30;48.20;;;;;;5122886;28;20031;-69
2022/03/28 04:16:05;;;;;;;1.75;1.10;;;16.30;48.20;;;;;;5122942;28;20020;-66
2022/03/28 04:18:30;;;;;;;0.82;0.80;;;16.30;48.20;;;;;;5122918;28;20033;-66
2022/03/28 04:20:56;;;;;;;1.58;1.48;;;16.30;48.10;;;;;;5122803;28;20017;-66
2022/03/28 04:23:25;;;;;;;1.30;1.08;;;16.30;48.20;;;;;;5123009;28;20023;-67
2022/03/28 04:25:52;;;;;;;3.03;1.40;;;16.30;48.20;;;;;;5122773;28;20072;-66
2022/03/28 04:28:18;;;;;;;1.58;1.30;;;16.20;48.20;;;;;;5122601;28;20031;-67
2022/03/28 04:30:44;;;;;;;1.60;1.50;;;16.20;48.20;;;;;;5122885;27;20094;-67
2022/03/28 04:33:11;;;;;;;1.38;1.10;;;16.20;48.20;;;;;;5122738;28;20023;-67
2022/03/28 04:35:38;;;;;;;1.25;1.15;;;16.20;48.20;;;;;;5122459;28;20020;-66
2022/03/28 04:38:09;;;;;;;1.45;1.15;;;16.20;48.20;;;;;;5122603;28;20030;-67
2022/03/28 04:40:36;;;;;;;1.33;1.10;;;16.20;48.20;;;;;;5122359;28;20087;-67
2022/03/28 04:43:02;;;;;;;1.38;1.27;;;16.20;48.20;;;;;;5121983;28;20020;-68
2022/03/28 04:45:30;;;;;;;2.95;1.20;;;16.20;48.30;;;;;;5121957;28;20201;-67
2022/03/28 04:47:56;;;;;;;1.15;1.05;;;16.20;48.20;;;;;;5122374;28;20046;-66
2022/03/28 04:50:22;;;;;;;1.73;1.42;;;16.20;48.20;;;;;;5122095;28;20047;-67
2022/03/28 04:52:48;;;;;;;2.08;1.27;;;16.20;48.20;;;;;;5122052;28;20050;-68
2022/03/28 04:55:14;;;;;;;1.70;1.40;;;16.10;48.20;;;;;;5122154;28;20031;-67
2022/03/28 04:57:40;;;;;;;1.80;1.27;;;16.10;48.20;;;;;;5122088;28;20038;-68
2022/03/28 05:00:09;;;;;;;1.30;1.20;;;16.10;48.20;;;;;;5122002;28;20027;-67
2022/03/28 05:02:35;;;;;;;;;;;16.10;48.30;;;;;;5122413;28;20023;-67
2022/03/28 05:05:02;;;;;;;1.95;1.13;;;16.10;48.20;;;;;;5121928;28;19907;-66
2022/03/28 05:07:32;;;;;;;1.40;1.30;;;16.20;48.20;;;;;;5121860;28;20023;-67
2022/03/28 05:09:59;;;;;;;1.73;1.30;;;16.10;48.20;;;;;;5121795;28;20095;-67
2022/03/28 05:12:25;;;;;;;1.38;1.27;;;16.10;48.20;;;;;;5122070;28;20047;-67
2022/03/28 05:14:52;;;;;;;1.42;1.30;;;16.20;48.20;;;;;;5121689;28;20023;-67
2022/03/28 05:17:29;;;;;;;1.60;1.50;;;16.10;48.10;;;;;;5121711;28;20028;-67
2022/03/28 05:19:56;;;;;;;1.15;0.98;;;16.10;48.20;;;;;;5121705;28;20342;-67
2022/03/28 05:22:22;;;;;;;1.40;1.30;;;16.10;48.20;;;;;;5121665;28;20031;-67
2022/03/28 05:24:52;;;;;;;1.52;1.05;;;16.10;48.20;;;;;;5121514;28;20027;-67
2022/03/28 05:27:18;;;;;;;1.83;1.30;;;16.10;48.20;;;;;;5121483;28;20030;-68
2022/03/28 05:29:44;;;;;;;1.67;1.35;;;16.00;48.20;;;;;;5121498;28;20028;-66
2022/03/28 05:32:11;;;;;;;1.50;1.20;;;16.10;48.20;;;;;;5121408;28;20062;-68
2022/03/28 05:34:37;;;;;;;1.40;1.17;;;16.10;48.20;;;;;;5121311;28;20023;-67
2022/03/28 05:37:13;;;;;;;1.20;0.93;;;16.10;48.20;;;;;;5121353;28;20482;-66
2022/03/28 05:39:40;;;;;;;1.45;1.33;;;16.10;48.20;;;;;;5121296;28;20027;-68
2022/03/28 05:42:10;;;;;;;1.10;1.00;;;16.10;48.10;;;;;;5121260;28;20020;-66
2022/03/28 05:44:37;;;;;;;1.65;1.00;;;16.10;48.10;;;;;;5121500;28;20031;-67
2022/03/28 05:47:03;;;;;;;1.25;1.15;;;16.10;48.10;;;;;;5121198;28;20078;-68
2022/03/28 05:49:29;;;;;;;1.40;1.27;;;16.10;48.10;;;;;;5120864;28;20363;-67
2022/03/28 05:51:55;;;;;;;1.45;1.35;;;16.10;48.10;;;;;;5121081;28;20073;-67
2022/03/28 05:54:21;;;;;;;1.60;1.20;;;16.10;48.00;;;;;;5120637;28;20035;-66
2022/03/28 05:56:48;;;;;;;1.30;1.20;;;16.20;48.00;;;;;;5120888;28;20095;-66
2022/03/28 05:59:14;;;;;;;0.95;0.90;;;16.10;48.00;;;;;;5120943;28;20030;-66
2022/03/28 06:01:39;;;;;;;1.33;1.15;;;16.10;48.00;;;;;;5120877;28;20027;-67
2022/03/28 06:04:05;;;;;;;0.90;0.77;;;16.10;48.00;;;;;;5120671;28;20085;-67
2022/03/28 06:06:32;;;;;;;1.20;1.10;;;16.10;48.00;;;;;;5120789;28;20043;-67
2022/03/28 06:08:58;;;;;;;1.23;0.88;;;16.10;48.00;;;;;;5120623;28;20368;-67
2022/03/28 06:11:24;;;;;;;1.75;1.10;;;16.10;48.10;;;;;;5120702;28;20031;-68
2022/03/28 06:13:50;;;;;;;1.65;1.35;;;16.10;48.10;;;;;;5120511;28;20286;-67
2022/03/28 06:16:16;;;;;;;1.20;1.10;;;16.10;48.00;;;;;;5120614;28;20020;-66
2022/03/28 06:18:42;;;;;;;1.52;1.15;;;16.10;48.00;;;;;;5119283;28;20024;-66
2022/03/28 06:21:08;;;;;;;1.73;1.10;;;16.10;47.90;;;;;;5120399;28;20023;-67
2022/03/28 06:23:37;;;;;;;1.33;1.20;;;16.10;48.00;;;;;;5120461;28;20051;-67
2022/03/28 06:26:04;;;;;;;1.38;1.15;;;16.10;47.90;;;;;;5120461;28;20028;-66
2022/03/28 06:28:30;;;;;;;1.42;1.02;;;16.10;47.90;;;;;;5120298;28;20035;-67
2022/03/28 06:30:57;;;;;;;1.20;1.10;;;16.10;47.80;;;;;;5120287;28;20023;-66
2022/03/28 06:33:23;;;;;;;1.20;1.10;;;16.10;47.80;;;;;;5120206;28;20023;-66
2022/03/28 06:35:49;;;;;;;1.20;1.10;;;16.20;47.80;;;;;;5120116;28;20302;-67
2022/03/28 06:38:15;;;;;;;3.13;1.40;;;16.10;47.80;;;;;;5120224;28;20215;-66
2022/03/28 06:40:41;;;;;;;1.30;1.17;;;16.10;48.40;;;;;;5120093;28;20023;-67
2022/03/28 06:43:06;;;;;;;1.30;1.20;;;16.20;47.90;;;;;;5120107;28;20037;-67
2022/03/28 06:45:33;;;;;;;1.90;1.27;;;16.20;47.80;;;;;;5118771;28;20036;-66
2022/03/28 06:47:59;;;;;;;2.42;1.50;;;16.20;47.80;;;;;;5119980;28;20086;-66
2022/03/28 06:50:27;;;;;;;1.30;1.20;;;16.20;47.80;;;;;;5119893;28;20284;-66
2022/03/28 06:52:53;;;;;;;1.45;1.10;;;16.20;47.80;;;;;;5119991;28;20216;-67
2022/03/28 06:55:19;;;;;;;1.17;1.05;;;16.20;47.80;;;;;;5119915;28;20220;-67
2022/03/28 06:57:45;;;;;;;1.58;1.10;;;16.20;47.70;;;;;;5119881;28;20505;-69
2022/03/28 07:00:12;;;;;;;1.27;1.10;;;16.10;47.70;;;;;;5119941;28;20069;-67
2022/03/28 07:02:39;;;;;;;1.40;0.90;;;16.10;47.80;;;;;;5119886;28;20230;-67
2022/03/28 07:05:07;;;;;;;1.50;1.27;;;16.10;47.80;;;;;;5119892;28;20023;-67
2022/03/28 07:07:46;;;;;;;1.60;1.17;;;16.20;47.80;;;;;;5124545;28;20057;-66
2022/03/28 07:10:14;;;;;;;1.25;1.15;;;16.20;47.80;;;;;;5126753;27;20034;-67
2022/03/28 07:12:39;;;;;;;1.38;1.05;;;16.20;47.80;;;;;;5126627;27;20023;-68
2022/03/28 07:15:07;;;;;;;1.30;1.20;;;16.20;47.70;;;;;;5126551;28;20047;-68
2022/03/28 07:17:58;;;;;;;1.10;1.00;;;16.20;47.70;;;;;;5126586;27;20069;-66
2022/03/28 07:20:26;;;;;;;1.05;0.95;;;16.10;47.70;;;;;;5126534;28;20015;-67
2022/03/28 07:22:53;;;;;;;1.02;0.93;;;16.20;47.70;;;;;;5126608;27;20019;-66
2022/03/28 07:25:20;;;;;;;1.02;0.93;;;16.20;47.80;;;;;;5126493;27;20023;-67
2022/03/28 07:27:46;;;;;;;1.58;1.10;;;16.10;47.80;;;;;;5126481;27;20034;-67
2022/03/28 07:30:13;;;;;;;1.13;1.02;;;16.10;47.80;;;;;;5126504;27;20085;-67
2022/03/28 07:32:39;;;;;;;1.55;1.08;;;16.20;47.80;;;;;;5126712;27;20011;-66
2022/03/28 07:35:06;;;;;;;0.88;0.85;;;16.20;47.80;;;;;;5126355;27;20019;-66
2022/03/28 07:37:32;;;;;;;1.45;1.20;;;16.10;47.80;;;;;;5126384;28;20019;-66
2022/03/28 07:39:58;;;;;;;1.63;1.17;;;16.10;47.90;;;;;;5126286;27;20090;-67
2022/03/28 07:42:24;;;;;;;1.10;1.00;;;16.20;47.90;;;;;;5126327;28;20023;-67
2022/03/28 07:44:55;;;;;;;1.20;1.00;;;16.10;47.80;;;;;;5126456;27;20095;-68
2022/03/28 07:47:23;;;;;;;1.10;1.00;;;16.10;47.90;;;;;;5126510;28;20043;-67
2022/03/28 07:49:48;;;;;;;1.30;1.17;;;16.10;47.80;;;;;;5126038;27;20089;-66
2022/03/28 07:52:14;;;;;;;1.63;1.05;;;16.10;47.80;;;;;;5126246;28;20027;-67
2022/03/28 07:54:40;;;;;;;1.70;1.35;;;16.20;47.90;;;;;;5126035;27;20045;-67
2022/03/28 07:57:07;;;;;;;1.58;1.20;;;16.10;47.80;;;;;;5126217;27;20047;-65
2022/03/28 07:59:32;;;;;;;1.15;1.05;;;16.20;47.90;;;;;;5126204;27;20030;-66
2022/03/28 08:01:58;;;;;;;2.97;1.38;;;16.20;47.80;;;;;;5126102;27;20024;-66
2022/03/28 08:04:24;;;;;;;1.35;1.05;;;16.20;47.80;;;;;;5126088;28;20035;-68
2022/03/28 08:06:50;;;;;;;1.40;1.20;;;16.20;47.80;;;;;;5126028;28;20026;-67
2022/03/28 08:09:17;;;;;;;1.00;0.90;;;16.20;47.90;;;;;;5126105;27;20024;-67
2022/03/28 08:11:43;;;;;;;0.90;0.90;;;16.20;47.90;;;;;;5126089;27;20334;-65
2022/03/28 08:14:09;;;;;;;1.45;1.05;;;16.20;47.90;;;;;;5125920;27;20027;-67
2022/03/28 08:16:35;;;;;;;1.63;1.10;;;16.20;48.50;;;;;;5126011;28;20020;-67
2022/03/28 08:19:01;;;;;;;1.30;1.20;;;16.20;47.90;;;;;;5123641;27;20073;-67
2022/03/28 08:21:30;;;;;;;1.05;0.95;;;16.20;47.90;;;;;;5122741;27;20129;-66
2022/03/28 08:23:55;;;;;;;1.30;1.10;;;16.20;48.00;;;;;;5122795;28;20084;-66
2022/03/28 08:26:22;;;;;;;1.35;1.20;;;16.20;48.00;;;;;;5122616;28;20032;-66
2022/03/28 08:28:48;;;;;;;1.55;1.40;;;16.10;48.00;;;;;;5122546;28;20069;-67
2022/03/28 08:31:14;;;;;;;1.40;1.05;;;16.20;48.00;;;;;;5122625;28;20383;-67
2022/03/28 08:33:40;;;;;;;1.67;1.27;;;16.20;48.00;;;;;;5122373;28;20031;-67
2022/03/28 08:36:07;;;;;;;1.27;1.17;;;16.20;48.00;;;;;;5122496;28;20225;-67
2022/03/28 08:38:35;;;;;;;1.83;1.25;;;16.20;48.00;;;;;;5122494;28;20255;-66
2022/03/28 08:41:01;;;;;;;1.20;1.10;;;16.20;48.00;;;;;;5122371;28;20023;-67
2022/03/28 08:43:28;;;;;;;1.70;1.30;;;16.20;48.00;;;;;;5122311;28;20339;-67
2022/03/28 08:45:56;;;;;;;1.52;1.02;;;16.20;48.00;;;;;;5122301;28;20051;-66
2022/03/28 08:48:22;;;;;;;0.98;0.95;;;16.20;48.00;;;;;;5122142;28;20039;-68
2022/03/28 08:50:52;;;;;;;1.63;1.20;;;16.20;48.00;;;;;;5122416;28;20387;-67
2022/03/28 08:53:18;;;;;;;1.33;1.10;;;16.30;48.00;;;;;;5122022;28;20201;-66
2022/03/28 08:55:45;;;;;;;1.33;1.08;;;16.20;48.00;;;;;;5122182;27;20023;-67
2022/03/28 08:58:12;;;;;;;1.77;1.30;;;16.30;48.00;;;;;;5122407;28;20086;-66
2022/03/28 09:00:38;;;;;;;2.28;1.10;;;16.20;48.00;;;;;;5121999;27;20024;-67
2022/03/28 09:03:09;;;;;;;1.67;1.25;;;16.30;48.10;;;;;;5122043;28;20023;-67
2022/03/28 09:05:38;;;;;;;1.33;1.20;;;16.20;48.10;;;;;;5122224;28;20022;-66
2022/03/28 09:08:06;;;;;;;1.38;1.20;;;16.30;48.10;;;;;;5121965;28;20098;-66
2022/03/28 09:10:33;;;;;;;1.63;1.30;;;16.30;48.10;;;;;;5121786;28;20322;-68
2022/03/28 09:13:09;;;;;;;1.02;1.00;;;16.30;48.00;;;;;;5121618;28;20106;-66
2022/03/28 09:15:56;;;;;;;1.40;1.20;;;16.30;48.00;;;;;;5121641;28;20028;-67
2022/03/28 09:18:39;;;;;;;1.23;0.90;;;16.30;48.10;;;;;;5121744;28;20027;-66
2022/03/28 09:21:16;;;;;;;1.58;1.30;;;16.30;48.10;;;;;;5121602;28;20026;-66
2022/03/28 09:23:48;;;;;;;1.10;1.00;;;16.30;48.10;;;;;;5121701;28;20051;-66
2022/03/28 09:26:20;;;;;;;1.05;0.85;;;16.30;48.10;;;;;;5121477;28;20069;-66
2022/03/28 09:28:49;;;;;;;1.55;1.30;;;16.30;48.20;;;;;;5121796;28;20020;-67
2022/03/28 09:31:21;;;;;;;1.92;1.23;;;16.30;48.20;;;;;;5120879;28;20047;-68
2022/03/28 09:33:59;;;;;;;1.20;1.10;;;16.30;48.20;;;;;;5121267;28;20027;-66
2022/03/28 09:36:37;;;;;;;1.63;1.27;;;16.30;48.20;;;;;;5121338;28;20042;-67
2022/03/28 09:39:04;;;;;;;1.20;1.10;;;16.30;48.20;;;;;;5121204;28;20076;-65
2022/03/28 09:41:30;;;;;;;1.65;1.15;;;16.30;48.20;;;;;;5121165;28;20242;-67
2022/03/28 09:43:58;;;;;;;1.48;1.38;;;16.30;48.20;;;;;;5121115;28;20023;-66
2022/03/28 09:46:28;;;;;;;1.02;0.95;;;16.30;48.20;;;;;;5121108;28;20027;-67
2022/03/28 09:48:57;;;;;;;1.00;0.90;;;16.30;48.20;;;;;;5119540;28;20059;-66
2022/03/28 09:51:29;;;;;;;1.27;1.10;;;16.30;48.20;;;;;;5121004;28;20024;-66
2022/03/28 09:53:55;;;;;;;1.45;1.23;;;16.30;48.10;;;;;;5120919;28;20023;-66
2022/03/28 09:56:21;;;;;;;1.52;1.08;;;16.30;48.30;;;;;;5119626;28;20030;-68
2022/03/28 09:58:56;;;;;;;1.33;1.00;;;16.30;48.30;;;;;;5120830;27;20023;-66
2022/03/28 10:01:25;;;;;;;1.17;1.08;;;16.40;48.40;;;;;;5120892;28;20023;-66
2022/03/28 10:04:03;;;;;;;1.67;1.38;;;16.40;48.30;;;;;;5120800;28;20050;-67
2022/03/28 10:06:29;;;;;;;1.35;1.02;;;16.40;48.40;;;;;;5120744;28;20035;-67
2022/03/28 10:08:55;;;;;;;1.05;1.00;;;16.40;48.40;;;;;;5120717;28;20065;-67
2022/03/28 10:11:21;;;;;;;1.10;1.02;;;16.40;48.30;;;;;;5120667;28;20323;-68
2022/03/28 10:13:47;;;;;;;1.88;1.02;;;16.40;48.40;;;;;;5120435;28;20038;-66
2022/03/28 10:16:13;;;;;;;1.00;0.93;;;16.40;48.30;;;;;;5120544;28;20030;-68
2022/03/28 10:18:41;;;;;;;1.58;1.20;;;16.40;48.30;;;;;;5120411;28;20086;-66
2022/03/28 10:21:15;;;;;;;1.27;1.00;;;16.40;48.30;;;;;;5120407;28;20262;-66
2022/03/28 10:23:50;;;;;;;1.08;0.95;;;16.40;48.30;;;;;;5120378;28;20024;-68
2022/03/28 10:26:19;;;;;;;1.33;1.23;;;16.40;48.40;;;;;;5120411;28;20046;-66
2022/03/28 10:29:09;;;;;;;1.80;1.45;;;16.40;48.30;;;;;;5120338;28;20019;-67
2022/03/28 10:31:55;;;;;;;1.27;1.13;;;16.40;48.40;;;;;;5120320;28;20020;-68
2022/03/28 10:34:53;;;;;;;1.73;1.10;;;16.40;48.30;;;;;;5120119;28;20372;-67
2022/03/28 10:37:39;;;;;;;1.60;1.20;;;16.40;48.40;;;;;;5120239;28;20328;-68
2022/03/28 10:40:22;;;;;;;1.27;1.00;;;16.40;48.40;;;;;;5120187;28;20026;-67
2022/03/28 10:43:13;;;;;;;1.02;0.93;;;16.40;48.40;;;;;;5119304;28;20027;-66
2022/03/28 10:45:39;;;;;;;1.35;1.00;;;16.40;48.40;;;;;;5120143;28;20316;-67
2022/03/28 10:48:06;;;;;;;1.10;1.00;;;16.40;48.30;;;;;;5119955;28;20080;-66
2022/03/28 10:50:32;;;;;;;1.52;1.35;;;16.50;48.50;;;;;;5120114;28;20347;-67
2022/03/28 10:53:39;;;;;;;1.08;0.98;;;16.40;48.40;;;;;;5119855;28;20035;-67
2022/03/28 10:56:26;;;;;;;1.07;0.80;;;16.40;48.40;;;;;;5120095;28;20015;-68
2022/03/28 10:58:58;;;;;;;1.30;1.20;;;16.50;48.50;;;;;;5120005;28;20023;-66
2022/03/28 11:01:28;;;;;;;1.67;1.30;;;16.40;48.40;;;;;;5119948;28;20018;-67
2022/03/28 11:04:15;;;;;;;1.55;1.30;;;16.50;48.50;;;;;;5119875;28;20334;-68
2022/03/28 11:06:49;;;;;;;1.27;1.17;;;16.40;48.50;;;;;;5119893;28;20023;-67
2022/03/28 11:09:32;;;;;;;1.10;1.00;;;16.50;48.50;;;;;;5119904;28;20016;-68
2022/03/28 11:12:04;;;;;;;1.33;0.93;;;16.50;48.40;;;;;;5119762;28;20430;-68
2022/03/28 11:14:51;;;;;;;1.52;1.10;;;16.50;48.50;;;;;;5119714;28;20043;-69
2022/03/28 11:17:28;;;;;;;1.15;1.05;;;16.50;48.50;;;;;;5119694;28;20027;-65
2022/03/28 11:20:11;;;;;;;1.20;1.10;;;16.50;48.50;;;;;;5119796;28;20344;-67
2022/03/28 11:23:06;;;;;;;1.35;1.00;;;16.50;48.40;;;;;;5119725;28;20035;-66
2022/03/28 11:25:36;;;;;;;1.10;1.00;;;16.50;48.40;;;;;;5113785;28;20080;-67
2022/03/28 11:28:18;;;;;;;1.10;1.00;;;16.50;48.40;;;;;;5119676;28;20031;-67
2022/03/28 11:30:59;;;;;;;1.20;1.00;;;16.50;48.50;;;;;;5119614;28;20091;-67
2022/03/28 11:33:30;;;;;;;1.30;0.98;;;16.50;48.50;;;;;;5119629;28;20058;-65
2022/03/28 11:35:56;;;;;;;1.23;1.10;;;16.60;48.50;;;;;;5119554;28;20164;-67
2022/03/28 11:38:49;;;;;;;1.10;1.00;;;16.60;48.60;;;;;;5119656;28;20486;-67
2022/03/28 11:41:17;;;;;;;1.42;1.30;;;16.60;48.50;;;;;;5117129;28;20028;-67
2022/03/28 11:43:45;;;;;;;2.28;1.08;;;16.60;48.50;;;;;;5119538;28;20110;-66
2022/03/28 11:46:17;;;;;;;1.38;1.10;;;16.60;48.50;;;;;;5118183;28;20034;-67
2022/03/28 11:48:59;;;;;;;1.10;1.00;;;16.60;48.50;;;;;;5119330;28;20060;-66
2022/03/28 11:51:28;;;;;;;1.20;1.10;;;16.60;48.50;;;;;;5118100;28;20060;-67
2022/03/28 11:54:01;;;;;;;1.13;1.02;;;16.60;48.50;;;;;;5121979;28;20019;-67
2022/03/28 11:56:30;;;;;;;1.17;1.08;;;16.60;48.50;;;;;;5123221;28;20019;-67
2022/03/28 11:59:05;;;;;;;1.00;0.80;;;16.60;48.50;;;;;;5123342;27;20189;-67
2022/03/28 12:01:32;;;;;;;1.30;1.20;;;16.60;48.50;;;;;;5121957;28;20023;-66
2022/03/28 12:03:59;;;;;;;1.20;0.88;;;16.60;48.50;;;;;;5123164;28;20027;-67
2022/03/28 12:06:27;;;;;;;1.20;1.10;;;16.60;48.50;;;;;;5123120;28;20061;-66
2022/03/28 12:08:53;;;;;;;1.13;1.03;;;16.70;48.60;;;;;;5121880;28;20065;-66
2022/03/28 12:11:19;;;;;;;1.30;1.00;;;16.70;48.60;;;;;;5122946;28;20086;-66
2022/03/28 12:13:45;;;;;;;1.23;0.90;;;16.70;48.60;;;;;;5122862;28;20023;-66
2022/03/28 12:16:10;;;;;;;1.08;0.98;;;16.70;48.60;;;;;;5122885;28;20027;-67
2022/03/28 12:18:36;;;;;;;1.25;1.15;;;16.70;48.60;;;;;;5122844;28;20034;-66
2022/03/28 12:21:02;;;;;;;1.13;1.05;;;16.70;48.50;;;;;;5122878;28;20045;-67
2022/03/28 12:23:28;;;;;;;1.58;0.90;;;16.70;48.50;;;;;;5122724;28;20087;-66
2022/03/28 12:26:04;;;;;;;1.42;1.05;;;16.70;48.50;;;;;;5122789;28;20038;-67
2022/03/28 12:28:35;;;;;;;1.05;0.95;;;16.70;48.60;;;;;;5122717;28;20068;-67
2022/03/28 12:31:05;;;;;;;1.38;1.00;;;16.70;48.60;;;;;;5122614;27;20027;-67
2022/03/28 12:33:38;;;;;;;1.05;0.95;;;16.70;48.50;;;;;;5122467;28;20015;-66
2022/03/28 12:36:10;;;;;;;0.75;0.73;;;16.70;48.50;;;;;;5122562;28;20049;-67
2022/03/28 12:38:44;;;;;;;1.40;0.90;;;16.80;48.50;;;;;;5122501;28;20091;-66
2022/03/28 12:41:15;;;;;;;0.80;0.80;;;16.80;48.50;;;;;;5122505;28;20012;-67
2022/03/28 12:43:48;;;;;;;1.23;1.10;;;16.80;48.50;;;;;;5121084;28;20019;-66
2022/03/28 12:46:16;;;;;;;1.23;1.13;;;16.80;48.50;;;;;;5122422;28;20030;-66
2022/03/28 12:48:49;;;;;;;1.10;1.00;;;16.80;48.50;;;;;;5120849;28;20286;-67
2022/03/28 12:51:21;;;;;;;1.25;1.15;;;16.80;48.50;;;;;;5122226;28;20024;-68
2022/03/28 12:53:47;;;;;;;1.00;0.90;;;16.80;48.50;;;;;;5122036;28;20035;-66